Golden Shanghai — 9HA2862 — position and weather

sailwx.info

Track history (hours):
 
Tides and Currents Weather Stations Pressure Air Temp Water Temp Dewpoint Dewpoint Depression Visibility Wind Speed Wind Dir Waves Ship Positions

Golden Shanghai

Last reported at 2015-Jul-23 18:33 UTC. Time now 2015-Aug-05 08:20 UTC.
Position N 04°51' E 098°49'.
Warning: this ship's position is 12 days out of date.

Length 292 m; draft 18.1 m.

Type: Ship. MMSI: 256456000.

Date/timePositionNaut miles runAvg speedWind from/ knotsBaromVisibWave heightAir tempDewpointWater temp
2015-Jul-23 18:33N 04°51' E 098°49'1212.1
2015-Jul-23 17:33N 04°43' E 098°58'3712.4
2015-Jul-23 14:33N 04°17' E 099°25'2311.6
2015-Jul-23 12:33N 04°02' E 099°42'3411.2
2015-Jul-23 09:33N 03°39' E 100°07'2411.8
2015-Jul-23 07:33N 03°23' E 100°25'1212.5
2015-Jul-23 06:33N 03°14' E 100°34'2512.4
2015-Jul-23 04:33N 02°58' E 100°52'2211.1
2015-Jul-23 02:33N 02°45' E 101°10'2211.1
2015-Jul-23 00:33N 02°34' E 101°30'1211.9
2015-Jul-22 23:33N 02°27' E 101°39'1412.6
2015-Jul-22 22:28N 02°19' E 101°50'1713.0
2015-Jul-22 21:09N 02°08' E 102°03'8911.7
2015-Jul-22 13:33N 01°20' E 103°19'1812.4
2015-Jul-22 12:05N 01°12' E 103°35'611.9
2015-Jul-22 11:33N 01°10' E 103°41'1110.7
2015-Jul-22 10:29N 01°12' E 103°52'1111.5
2015-Jul-22 09:33N 01°16' E 104°02'3 3.2
2015-Jul-22 08:30N 01°18' E 104°05'0 0.0
2015-Jul-22 07:18N 01°18' E 104°05'0 0.0
2015-Jul-22 06:24N 01°18' E 104°05'0 0.0
2015-Jul-22 05:27N 01°18' E 104°05'0 0.0
2015-Jul-22 04:12N 01°18' E 104°05'0 0.2
2015-Jul-22 03:27N 01°18' E 104°05'0 0.1
2015-Jul-22 02:06N 01°18' E 104°06'0 0.2
2015-Jul-22 01:33N 01°18' E 104°06'0 0.1
2015-Jul-22 00:12N 01°18' E 104°06'0 0.0
2015-Jul-21 22:18N 01°18' E 104°06'0 0.0
2015-Jul-21 21:30N 01°18' E 104°06'0 0.0
2015-Jul-21 19:30N 01°18' E 104°06'0 0.2
2015-Jul-21 18:30N 01°18' E 104°05'0 0.0
2015-Jul-21 16:30N 01°18' E 104°05'0 0.0
2015-Jul-21 15:33N 01°18' E 104°05'0 0.0
2015-Jul-21 14:30N 01°18' E 104°05'  
Track history (hours):
 
Tides and Currents Weather Stations Pressure Air Temp Water Temp Dewpoint Dewpoint Depression Visibility Wind Speed Wind Dir Waves Ship Positions

Golden Shanghai

Last reported at 2015-Jul-23 18:33 UTC. Time now 2015-Aug-05 08:20 UTC.
Position N 04°51' E 098°49'.
Warning: this ship's position is 12 days out of date.

Length 292 m; draft 18.1 m.

Type: Ship. MMSI: 256456000.

Date/timePositionNaut miles runAvg speedWind from/ knotsBaromVisibWave heightAir tempDewpointWater temp
2015-Jul-23 18:33N 04°51' E 098°49'1212.1
2015-Jul-23 17:33N 04°43' E 098°58'3712.4
2015-Jul-23 14:33N 04°17' E 099°25'2311.6
2015-Jul-23 12:33N 04°02' E 099°42'3411.2
2015-Jul-23 09:33N 03°39' E 100°07'2411.8
2015-Jul-23 07:33N 03°23' E 100°25'1212.5
2015-Jul-23 06:33N 03°14' E 100°34'2512.4
2015-Jul-23 04:33N 02°58' E 100°52'2211.1
2015-Jul-23 02:33N 02°45' E 101°10'2211.1
2015-Jul-23 00:33N 02°34' E 101°30'1211.9
2015-Jul-22 23:33N 02°27' E 101°39'1412.6
2015-Jul-22 22:28N 02°19' E 101°50'1713.0
2015-Jul-22 21:09N 02°08' E 102°03'8911.7
2015-Jul-22 13:33N 01°20' E 103°19'1812.4
2015-Jul-22 12:05N 01°12' E 103°35'611.9
2015-Jul-22 11:33N 01°10' E 103°41'1110.7
2015-Jul-22 10:29N 01°12' E 103°52'1111.5
2015-Jul-22 09:33N 01°16' E 104°02'3 3.2
2015-Jul-22 08:30N 01°18' E 104°05'0 0.0
2015-Jul-22 07:18N 01°18' E 104°05'0 0.0
2015-Jul-22 06:24N 01°18' E 104°05'0 0.0
2015-Jul-22 05:27N 01°18' E 104°05'0 0.0
2015-Jul-22 04:12N 01°18' E 104°05'0 0.2
2015-Jul-22 03:27N 01°18' E 104°05'0 0.1
2015-Jul-22 02:06N 01°18' E 104°06'0 0.2
2015-Jul-22 01:33N 01°18' E 104°06'0 0.1
2015-Jul-22 00:12N 01°18' E 104°06'0 0.0
2015-Jul-21 22:18N 01°18' E 104°06'0 0.0
2015-Jul-21 21:30N 01°18' E 104°06'0 0.0
2015-Jul-21 19:30N 01°18' E 104°06'0 0.2
2015-Jul-21 18:30N 01°18' E 104°05'0 0.0
2015-Jul-21 16:30N 01°18' E 104°05'0 0.0
2015-Jul-21 15:33N 01°18' E 104°05'0 0.0
2015-Jul-21 14:30N 01°18' E 104°05'  

Dump ship's entire track history